Time;durP1;ratioP1;P1;durP2;ratioP2;P2;SDS_P1;SDS_P2;PMS_P1;PMS_P2;Temp;Humidity;BMP_temperature;BMP_pressure;BME280_temperature;BME280_humidity;BME280_pressure;Samples;Min_cycle;Max_cycle;Signal;HPM_P1;HPM_P2
2022/08/19 00:00:08;;;;;;;;;;;;;;;;;;343063;28;949;-64
2022/08/19 00:00:19;;;;;;;;;;;;;;;;;;342948;28;1766;-64
2022/08/19 00:00:29;;;;;;;;;;;;;;;;;;343058;28;881;-64
2022/08/19 00:00:39;;;;;;;;;;;;;;;;;;343053;28;794;-64
2022/08/19 00:00:50;;;;;;;;;;;;;;;;;;342976;28;1825;-64
2022/08/19 00:01:00;;;;;;;;;;;;;;;;;;344221;28;1456;-63
2022/08/19 00:01:10;;;;;;;;;;;;;;;;;;344274;28;1486;-64
2022/08/19 00:01:21;;;;;;;;;;;;;;;;;;344381;28;932;-64
2022/08/19 00:01:32;;;;;;;;;;;;;;;;;;344073;28;1675;-64
2022/08/19 00:01:43;;;;;;;;;;;;;;;;;;344396;28;1270;-64
2022/08/19 00:01:55;;;;;;;;;;;;;;;;;;344412;28;999;-64
2022/08/19 00:02:05;;;;;;;;;;;;;;;;;;343468;28;1651;-63
2022/08/19 00:02:15;;;;;;;;;;;;;;;;;;343454;28;1302;-64
2022/08/19 00:02:25;;;;;;;;;;;;;;;;;;344320;28;909;-64
2022/08/19 00:02:36;;;;;;;;;;;;;;;;;;344325;28;912;-64
2022/08/19 00:02:46;;;;;;;;;;;;;;;;;;344352;28;888;-63
2022/08/19 00:02:56;;;;;;;;;;;;;;;;;;344344;28;972;-64
2022/08/19 00:03:07;;;;;;;;;;;;;;;;;;343578;28;1568;-64
2022/08/19 00:03:17;;;;;;;;;;;;;;;;;;344413;28;928;-64
2022/08/19 00:03:27;;;;;;;;;;;;;;;;;;344368;28;907;-64
2022/08/19 00:03:37;;;;;;;;;;;;;;;;;;344338;28;856;-64
2022/08/19 00:03:48;;;;;;;;;;;;;;;;;;344373;28;1160;-64
2022/08/19 00:03:59;;;;;;;;;;;;;;;;;;344354;28;991;-64
2022/08/19 00:04:11;;;;;;;;;;;;;;;;;;344403;28;848;-64
2022/08/19 00:04:23;;;;;;;;;;;;;;;;;;344349;28;949;-64
2022/08/19 00:04:36;;;;;;;;;;;;;;;;;;344296;28;1972;-64
2022/08/19 00:04:48;;;;;;;;;;;;;;;;;;344396;28;928;-64
2022/08/19 00:04:58;;;;;;;;;;;;;;;;;;344378;28;948;-63
2022/08/19 00:05:10;;;;;;;;;;;;;;;;;;344149;28;1773;-64
2022/08/19 00:05:21;;;;;;;;;;;;;;;;;;344304;28;1463;-64
2022/08/19 00:05:31;;;;;;;;;;;;;;;;;;344353;28;987;-63
2022/08/19 00:05:42;;;;;;;;;;;;;;;;;;344330;28;975;-64
2022/08/19 00:05:52;;;;;;;;;;;;;;;;;;344313;28;1515;-64
2022/08/19 00:06:03;;;;;;;;;;;;;;;;;;344316;28;860;-64
2022/08/19 00:06:14;;;;;;;;;;;;;;;;;;344378;28;1302;-63
2022/08/19 00:06:24;;;;;;;;;;;;;;;;;;344409;28;817;-64
2022/08/19 00:06:35;;;;;;;;;;;;;;;;;;344562;28;900;-63
2022/08/19 00:06:46;;;;;;;;;;;;;;;;;;344350;28;925;-63
2022/08/19 00:06:57;;;;;;;;;;;;;;;;;;344379;28;789;-64
2022/08/19 00:07:07;;;;;;;;;;;;;;;;;;344360;28;916;-64
2022/08/19 00:07:18;;;;;;;;;;;;;;;;;;344388;28;849;-64
2022/08/19 00:07:29;;;;;;;;;;;;;;;;;;343539;28;1561;-64
2022/08/19 00:07:41;;;;;;;;;;;;;;;;;;344052;28;1717;-63
2022/08/19 00:07:51;;;;;;;;;;;;;;;;;;343764;28;1588;-64
2022/08/19 00:08:01;;;;;;;;;;;;;;;;;;344351;28;976;-64
2022/08/19 00:08:12;;;;;;;;;;;;;;;;;;344336;28;918;-64
2022/08/19 00:08:22;;;;;;;;;;;;;;;;;;344352;28;1042;-64
2022/08/19 00:08:32;;;;;;;;;;;;;;;;;;344371;28;829;-64
2022/08/19 00:08:42;;;;;;;;;;;;;;;;;;344338;28;913;-64
2022/08/19 00:08:53;;;;;;;;;;;;;;;;;;344359;28;864;-64
2022/08/19 00:09:04;;;;;;;;;;;;;;;;;;344327;28;1075;-64
2022/08/19 00:09:16;;;;;;;;;;;;;;;;;;344353;28;754;-64
2022/08/19 00:09:27;;;;;;;;;;;;;;;;;;343632;28;1636;-63
2022/08/19 00:09:37;;;;;;;;;;;;;;;;;;344298;28;925;-63
2022/08/19 00:09:47;;;;;;;;;;;;;;;;;;344293;28;995;-63
2022/08/19 00:09:57;;;;;;;;;;;;;;;;;;344105;28;1667;-64
2022/08/19 00:10:07;;;;;;;;;;;;;;;;;;344269;28;1546;-63
2022/08/19 00:10:18;;;;;;;;;;;;;;;;;;344294;28;983;-64
2022/08/19 00:10:29;;;;;;;;;;;;;;;;;;343609;28;1462;-64
2022/08/19 00:10:39;;;;;;;;;;;;;;;;;;344428;28;920;-64
2022/08/19 00:10:49;;;;;;;;;;;;;;;;;;344415;28;979;-64
2022/08/19 00:10:59;;;;;;;;;;;;;;;;;;344362;28;912;-64
2022/08/19 00:11:10;;;;;;;;;;;;;;;;;;344403;28;896;-64
2022/08/19 00:11:20;;;;;;;;;;;;;;;;;;344472;28;1014;-64
2022/08/19 00:11:30;;;;;;;;;;;;;;;;;;343724;28;1765;-64
2022/08/19 00:11:41;;;;;;;;;;;;;;;;;;344340;28;987;-64
2022/08/19 00:11:52;;;;;;;;;;;;;;;;;;344398;28;964;-64
2022/08/19 00:12:02;;;;;;;;;;;;;;;;;;344323;28;1006;-64
2022/08/19 00:12:13;;;;;;;;;;;;;;;;;;344357;28;798;-64
2022/08/19 00:12:23;;;;;;;;;;;;;;;;;;343886;28;1454;-64
2022/08/19 00:12:33;;;;;;;;;;;;;;;;;;344241;28;965;-64
2022/08/19 00:12:44;;;;;;;;;;;;;;;;;;344414;28;904;-64
2022/08/19 00:12:54;;;;;;;;;;;;;;;;;;344350;28;971;-64
2022/08/19 00:13:04;;;;;;;;;;;;;;;;;;344348;28;902;-64
2022/08/19 00:13:15;;;;;;;;;;;;;;;;;;344356;28;876;-64
2022/08/19 00:13:26;;;;;;;;;;;;;;;;;;344256;28;1757;-63
2022/08/19 00:13:38;;;;;;;;;;;;;;;;;;343885;28;1465;-64
2022/08/19 00:13:49;;;;;;;;;;;;;;;;;;343361;28;1550;-64
2022/08/19 00:14:00;;;;;;;;;;;;;;;;;;344307;28;960;-64
2022/08/19 00:14:11;;;;;;;;;;;;;;;;;;344253;28;903;-64
2022/08/19 00:14:22;;;;;;;;;;;;;;;;;;344407;28;908;-64
2022/08/19 00:14:32;;;;;;;;;;;;;;;;;;344376;28;940;-64
2022/08/19 00:14:42;;;;;;;;;;;;;;;;;;344371;28;980;-63
2022/08/19 00:14:53;;;;;;;;;;;;;;;;;;344448;28;913;-63
2022/08/19 00:15:05;;;;;;;;;;;;;;;;;;344373;28;789;-64
2022/08/19 00:15:18;;;;;;;;;;;;;;;;;;344339;28;952;-64
2022/08/19 00:15:28;;;;;;;;;;;;;;;;;;343945;28;1635;-64
2022/08/19 00:15:39;;;;;;;;;;;;;;;;;;343015;28;858;-64
2022/08/19 00:15:49;;;;;;;;;;;;;;;;;;343026;28;928;-64
2022/08/19 00:16:00;;;;;;;;;;;;;;;;;;342984;28;932;-64
2022/08/19 00:16:10;;;;;;;;;;;;;;;;;;343405;28;1513;-64
2022/08/19 00:16:21;;;;;;;;;;;;;;;;;;344367;28;865;-64
2022/08/19 00:16:31;;;;;;;;;;;;;;;;;;344377;28;928;-64
2022/08/19 00:16:42;;;;;;;;;;;;;;;;;;344385;28;918;-64
2022/08/19 00:16:54;;;;;;;;;;;;;;;;;;344364;28;940;-64
2022/08/19 00:17:06;;;;;;;;;;;;;;;;;;344381;28;979;-64
2022/08/19 00:17:16;;;;;;;;;;;;;;;;;;344245;28;1474;-64
2022/08/19 00:17:26;;;;;;;;;;;;;;;;;;343850;28;1664;-64
2022/08/19 00:17:41;;;;;;;;;;;;;;;;;;343016;28;1538;-64
2022/08/19 00:17:51;;;;;;;;;;;;;;;;;;342990;28;1137;-64
2022/08/19 00:18:01;;;;;;;;;;;;;;;;;;343026;28;980;-64
2022/08/19 00:18:11;;;;;;;;;;;;;;;;;;342952;28;987;-64
2022/08/19 00:18:21;;;;;;;;;;;;;;;;;;342937;28;897;-64
2022/08/19 00:18:32;;;;;;;;;;;;;;;;;;343033;28;996;-64
2022/08/19 00:18:42;;;;;;;;;;;;;;;;;;343037;28;850;-64
2022/08/19 00:18:53;;;;;;;;;;;;;;;;;;342970;28;983;-64
2022/08/19 00:19:04;;;;;;;;;;;;;;;;;;343040;28;952;-64
2022/08/19 00:19:15;;;;;;;;;;;;;;;;;;343022;28;912;-64
2022/08/19 00:19:25;;;;;;;;;;;;;;;;;;343009;28;916;-64
2022/08/19 00:19:36;;;;;;;;;;;;;;;;;;342915;28;1687;-64
2022/08/19 00:19:46;;;;;;;;;;;;;;;;;;343850;28;1551;-64
2022/08/19 00:19:56;;;;;;;;;;;;;;;;;;344289;28;1507;-64
2022/08/19 00:20:07;;;;;;;;;;;;;;;;;;344340;28;1199;-64
2022/08/19 00:20:19;;;;;;;;;;;;;;;;;;344228;28;948;-64
2022/08/19 00:20:29;;;;;;;;;;;;;;;;;;344331;28;940;-64
2022/08/19 00:20:40;;;;;;;;;;;;;;;;;;344350;28;955;-64
2022/08/19 00:20:50;;;;;;;;;;;;;;;;;;344396;28;940;-63
2022/08/19 00:21:00;;;;;;;;;;;;;;;;;;344327;28;857;-64
2022/08/19 00:21:11;;;;;;;;;;;;;;;;;;344372;28;900;-64
2022/08/19 00:21:22;;;;;;;;;;;;;;;;;;344310;28;952;-63
2022/08/19 00:21:32;;;;;;;;;;;;;;;;;;343717;28;1690;-64
2022/08/19 00:21:43;;;;;;;;;;;;;;;;;;344307;28;995;-64
2022/08/19 00:21:54;;;;;;;;;;;;;;;;;;343455;28;1746;-64
2022/08/19 00:22:04;;;;;;;;;;;;;;;;;;344257;28;1748;-64
2022/08/19 00:22:17;;;;;;;;;;;;;;;;;;344414;28;801;-64
2022/08/19 00:22:28;;;;;;;;;;;;;;;;;;344247;28;933;-64
2022/08/19 00:22:40;;;;;;;;;;;;;;;;;;344379;28;924;-64
2022/08/19 00:22:51;;;;;;;;;;;;;;;;;;344338;28;988;-64
2022/08/19 00:23:03;;;;;;;;;;;;;;;;;;344370;28;905;-64
2022/08/19 00:23:14;;;;;;;;;;;;;;;;;;344325;28;920;-63
2022/08/19 00:23:25;;;;;;;;;;;;;;;;;;344310;28;916;-64
2022/08/19 00:23:37;;;;;;;;;;;;;;;;;;343573;28;1668;-64
2022/08/19 00:23:47;;;;;;;;;;;;;;;;;;344393;28;983;-64
2022/08/19 00:24:00;;;;;;;;;;;;;;;;;;344358;28;980;-64
2022/08/19 00:24:12;;;;;;;;;;;;;;;;;;344364;28;976;-64
2022/08/19 00:24:22;;;;;;;;;;;;;;;;;;344282;28;1092;-64
2022/08/19 00:24:33;;;;;;;;;;;;;;;;;;344276;28;1979;-63
2022/08/19 00:24:44;;;;;;;;;;;;;;;;;;344350;28;909;-64
2022/08/19 00:24:54;;;;;;;;;;;;;;;;;;344401;28;868;-64
2022/08/19 00:25:05;;;;;;;;;;;;;;;;;;344369;28;868;-64
2022/08/19 00:25:15;;;;;;;;;;;;;;;;;;344374;28;920;-63
2022/08/19 00:25:26;;;;;;;;;;;;;;;;;;344195;28;1465;-64
2022/08/19 00:25:36;;;;;;;;;;;;;;;;;;343780;28;1676;-64
2022/08/19 00:25:46;;;;;;;;;;;;;;;;;;344392;28;901;-64
2022/08/19 00:25:56;;;;;;;;;;;;;;;;;;344410;28;963;-64
2022/08/19 00:26:07;;;;;;;;;;;;;;;;;;344356;28;893;-64
2022/08/19 00:26:17;;;;;;;;;;;;;;;;;;344353;28;916;-64
2022/08/19 00:26:27;;;;;;;;;;;;;;;;;;344331;28;952;-64
2022/08/19 00:26:38;;;;;;;;;;;;;;;;;;343274;28;1710;-64
2022/08/19 00:26:48;;;;;;;;;;;;;;;;;;342911;28;1058;-64
2022/08/19 00:26:58;;;;;;;;;;;;;;;;;;343061;28;915;-64
2022/08/19 00:27:09;;;;;;;;;;;;;;;;;;343035;28;814;-64
2022/08/19 00:27:19;;;;;;;;;;;;;;;;;;343013;28;1010;-64
2022/08/19 00:27:29;;;;;;;;;;;;;;;;;;342942;28;969;-64
2022/08/19 00:27:39;;;;;;;;;;;;;;;;;;343031;28;901;-64
2022/08/19 00:27:50;;;;;;;;;;;;;;;;;;343002;28;933;-64
2022/08/19 00:28:00;;;;;;;;;;;;;;;;;;343005;28;925;-64
2022/08/19 00:28:10;;;;;;;;;;;;;;;;;;343038;28;865;-64
2022/08/19 00:28:20;;;;;;;;;;;;;;;;;;342986;28;924;-64
2022/08/19 00:28:31;;;;;;;;;;;;;;;;;;343132;28;1528;-64
2022/08/19 00:28:41;;;;;;;;;;;;;;;;;;344040;28;1457;-63
2022/08/19 00:28:52;;;;;;;;;;;;;;;;;;344290;28;1558;-64
2022/08/19 00:29:03;;;;;;;;;;;;;;;;;;344338;28;1051;-64
2022/08/19 00:29:14;;;;;;;;;;;;;;;;;;344355;28;967;-64
2022/08/19 00:29:24;;;;;;;;;;;;;;;;;;344377;28;1118;-64
2022/08/19 00:29:35;;;;;;;;;;;;;;;;;;344317;28;908;-64
2022/08/19 00:29:45;;;;;;;;;;;;;;;;;;344366;28;928;-64
2022/08/19 00:29:55;;;;;;;;;;;;;;;;;;344374;28;846;-64
2022/08/19 00:30:06;;;;;;;;;;;;;;;;;;344327;28;1051;-64
2022/08/19 00:30:16;;;;;;;;;;;;;;;;;;344321;28;935;-64
2022/08/19 00:30:30;;;;;;;;;;;;;;;;;;344325;28;941;-64
2022/08/19 00:30:40;;;;;;;;;;;;;;;;;;342970;28;1707;-64
2022/08/19 00:30:51;;;;;;;;;;;;;;;;;;342977;28;921;-64
2022/08/19 00:31:02;;;;;;;;;;;;;;;;;;343047;28;872;-64
2022/08/19 00:31:13;;;;;;;;;;;;;;;;;;343018;28;849;-64
2022/08/19 00:31:25;;;;;;;;;;;;;;;;;;342935;28;1022;-64
2022/08/19 00:31:35;;;;;;;;;;;;;;;;;;343331;28;1691;-64
2022/08/19 00:31:46;;;;;;;;;;;;;;;;;;344322;28;932;-63
2022/08/19 00:31:58;;;;;;;;;;;;;;;;;;344325;28;992;-64
2022/08/19 00:32:08;;;;;;;;;;;;;;;;;;344409;28;778;-64
2022/08/19 00:32:18;;;;;;;;;;;;;;;;;;344305;28;936;-64
2022/08/19 00:32:29;;;;;;;;;;;;;;;;;;344309;28;881;-64
2022/08/19 00:32:39;;;;;;;;;;;;;;;;;;344301;28;912;-64
2022/08/19 00:32:50;;;;;;;;;;;;;;;;;;344424;28;904;-64
2022/08/19 00:33:00;;;;;;;;;;;;;;;;;;344288;28;881;-64
2022/08/19 00:33:10;;;;;;;;;;;;;;;;;;344357;28;948;-64
2022/08/19 00:33:21;;;;;;;;;;;;;;;;;;344332;28;941;-64
2022/08/19 00:33:32;;;;;;;;;;;;;;;;;;344343;28;917;-64
2022/08/19 00:33:42;;;;;;;;;;;;;;;;;;344217;28;1739;-64
2022/08/19 00:33:53;;;;;;;;;;;;;;;;;;344398;28;777;-64
2022/08/19 00:34:03;;;;;;;;;;;;;;;;;;344322;28;998;-64
2022/08/19 00:34:14;;;;;;;;;;;;;;;;;;344337;28;947;-64
2022/08/19 00:34:27;;;;;;;;;;;;;;;;;;344380;28;813;-64
2022/08/19 00:34:37;;;;;;;;;;;;;;;;;;344287;28;971;-64
2022/08/19 00:34:48;;;;;;;;;;;;;;;;;;344289;28;976;-64
2022/08/19 00:34:58;;;;;;;;;;;;;;;;;;344235;28;983;-64
2022/08/19 00:35:09;;;;;;;;;;;;;;;;;;344336;28;861;-64
2022/08/19 00:35:19;;;;;;;;;;;;;;;;;;344289;28;1365;-64
2022/08/19 00:35:29;;;;;;;;;;;;;;;;;;344319;28;865;-64
2022/08/19 00:35:40;;;;;;;;;;;;;;;;;;344066;28;1726;-64
2022/08/19 00:35:50;;;;;;;;;;;;;;;;;;344360;28;983;-64
2022/08/19 00:36:01;;;;;;;;;;;;;;;;;;344320;28;873;-64
2022/08/19 00:36:11;;;;;;;;;;;;;;;;;;344306;28;1019;-64
2022/08/19 00:36:21;;;;;;;;;;;;;;;;;;344390;28;865;-64
2022/08/19 00:36:32;;;;;;;;;;;;;;;;;;344279;28;916;-64
2022/08/19 00:36:43;;;;;;;;;;;;;;;;;;344340;28;944;-64
2022/08/19 00:36:54;;;;;;;;;;;;;;;;;;344317;28;1187;-64
2022/08/19 00:37:04;;;;;;;;;;;;;;;;;;344288;28;971;-64
2022/08/19 00:37:14;;;;;;;;;;;;;;;;;;344334;28;956;-64
2022/08/19 00:37:25;;;;;;;;;;;;;;;;;;343722;28;1718;-64
2022/08/19 00:37:36;;;;;;;;;;;;;;;;;;343903;28;1636;-64
2022/08/19 00:37:47;;;;;;;;;;;;;;;;;;344285;28;1415;-63
2022/08/19 00:37:58;;;;;;;;;;;;;;;;;;343957;28;1623;-64
2022/08/19 00:38:08;;;;;;;;;;;;;;;;;;342937;28;1652;-64
2022/08/19 00:38:22;;;;;;;;;;;;;;;;;;343008;28;1604;-64
2022/08/19 00:38:33;;;;;;;;;;;;;;;;;;343005;28;817;-64
2022/08/19 00:38:43;;;;;;;;;;;;;;;;;;343027;28;813;-64
2022/08/19 00:38:53;;;;;;;;;;;;;;;;;;343009;28;956;-64
2022/08/19 00:39:04;;;;;;;;;;;;;;;;;;342873;28;879;-63
2022/08/19 00:39:15;;;;;;;;;;;;;;;;;;342986;28;877;-64
2022/08/19 00:39:25;;;;;;;;;;;;;;;;;;342993;28;1699;-64
2022/08/19 00:39:35;;;;;;;;;;;;;;;;;;342965;28;1813;-64
2022/08/19 00:39:45;;;;;;;;;;;;;;;;;;344273;28;949;-64
2022/08/19 00:39:56;;;;;;;;;;;;;;;;;;344368;28;810;-64
2022/08/19 00:40:07;;;;;;;;;;;;;;;;;;344307;28;975;-64
2022/08/19 00:40:18;;;;;;;;;;;;;;;;;;344319;28;991;-64
2022/08/19 00:40:30;;;;;;;;;;;;;;;;;;344337;28;928;-64
2022/08/19 00:40:43;;;;;;;;;;;;;;;;;;343082;28;1820;-64
2022/08/19 00:40:54;;;;;;;;;;;;;;;;;;344348;28;1010;-64
2022/08/19 00:41:04;;;;;;;;;;;;;;;;;;344323;28;794;-64
2022/08/19 00:41:17;;;;;;;;;;;;;;;;;;344266;28;928;-64
2022/08/19 00:41:27;;;;;;;;;;;;;;;;;;344201;28;1754;-64
2022/08/19 00:41:38;;;;;;;;;;;;;;;;;;344321;28;1030;-64
2022/08/19 00:41:49;;;;;;;;;;;;;;;;;;344302;28;928;-64
2022/08/19 00:41:59;;;;;;;;;;;;;;;;;;344299;28;916;-64
2022/08/19 00:42:10;;;;;;;;;;;;;;;;;;344358;28;932;-64
2022/08/19 00:42:21;;;;;;;;;;;;;;;;;;344335;28;770;-64
2022/08/19 00:42:31;;;;;;;;;;;;;;;;;;344150;28;1516;-64
2022/08/19 00:42:41;;;;;;;;;;;;;;;;;;343452;28;1570;-64
2022/08/19 00:42:53;;;;;;;;;;;;;;;;;;344340;28;995;-64
2022/08/19 00:43:10;;;;;;;;;;;;;;;;;;343800;28;1528;-64
2022/08/19 00:43:22;;;;;;;;;;;;;;;;;;344317;28;999;-64
2022/08/19 00:43:32;;;;;;;;;;;;;;;;;;344363;28;781;-64
2022/08/19 00:43:42;;;;;;;;;;;;;;;;;;344114;28;1842;-64
2022/08/19 00:44:00;;;;;;;;;;;;;;;;;;344263;28;1590;-64
2022/08/19 00:44:14;;;;;;;;;;;;;;;;;;344178;28;1225;-64
2022/08/19 00:44:27;;;;;;;;;;;;;;;;;;344323;28;984;-64
2022/08/19 00:44:38;;;;;;;;;;;;;;;;;;344295;28;905;-64
2022/08/19 00:44:48;;;;;;;;;;;;;;;;;;344246;28;908;-64
2022/08/19 00:44:59;;;;;;;;;;;;;;;;;;344303;28;996;-64
2022/08/19 00:45:12;;;;;;;;;;;;;;;;;;344257;28;1497;-64
2022/08/19 00:45:24;;;;;;;;;;;;;;;;;;342979;28;1110;-64
2022/08/19 00:45:35;;;;;;;;;;;;;;;;;;342963;28;1013;-64
2022/08/19 00:45:45;;;;;;;;;;;;;;;;;;344001;28;1785;-64
2022/08/19 00:45:56;;;;;;;;;;;;;;;;;;344313;28;916;-64
2022/08/19 00:46:06;;;;;;;;;;;;;;;;;;344335;28;960;-63
2022/08/19 00:46:18;;;;;;;;;;;;;;;;;;344308;28;963;-64
2022/08/19 00:46:29;;;;;;;;;;;;;;;;;;344374;28;901;-64
2022/08/19 00:46:40;;;;;;;;;;;;;;;;;;344356;28;909;-64
2022/08/19 00:46:51;;;;;;;;;;;;;;;;;;344215;28;1263;-64
2022/08/19 00:47:02;;;;;;;;;;;;;;;;;;344365;28;877;-64
2022/08/19 00:47:12;;;;;;;;;;;;;;;;;;343894;28;1465;-64
2022/08/19 00:47:23;;;;;;;;;;;;;;;;;;344051;28;1213;-64
2022/08/19 00:47:33;;;;;;;;;;;;;;;;;;344355;28;837;-63
2022/08/19 00:47:44;;;;;;;;;;;;;;;;;;344336;28;937;-64
2022/08/19 00:47:54;;;;;;;;;;;;;;;;;;343663;28;1574;-64
2022/08/19 00:48:04;;;;;;;;;;;;;;;;;;344200;28;1626;-64
2022/08/19 00:48:16;;;;;;;;;;;;;;;;;;344274;28;984;-64
2022/08/19 00:48:26;;;;;;;;;;;;;;;;;;344372;28;975;-64
2022/08/19 00:48:36;;;;;;;;;;;;;;;;;;344327;28;972;-64
2022/08/19 00:48:46;;;;;;;;;;;;;;;;;;344348;28;991;-64
2022/08/19 00:48:57;;;;;;;;;;;;;;;;;;344320;28;991;-64
2022/08/19 00:49:31;;;;;;;;;;;;;;;;;;344358;28;853;-64
2022/08/19 00:49:43;;;;;;;;;;;;;;;;;;347088;28;908;-63
2022/08/19 00:49:55;;;;;;;;;;;;;;;;;;345779;28;1165;-64
2022/08/19 00:50:07;;;;;;;;;;;;;;;;;;344322;28;1020;-63
2022/08/19 00:50:19;;;;;;;;;;;;;;;;;;343947;28;1743;-64
2022/08/19 00:50:30;;;;;;;;;;;;;;;;;;344260;28;1468;-64
2022/08/19 00:50:42;;;;;;;;;;;;;;;;;;344296;28;1157;-64
2022/08/19 00:50:54;;;;;;;;;;;;;;;;;;344315;28;995;-64
2022/08/19 00:51:05;;;;;;;;;;;;;;;;;;343400;28;1711;-64
2022/08/19 00:51:15;;;;;;;;;;;;;;;;;;344312;28;948;-64
2022/08/19 00:51:27;;;;;;;;;;;;;;;;;;344334;28;908;-64
2022/08/19 00:51:37;;;;;;;;;;;;;;;;;;344281;28;941;-64
2022/08/19 00:51:49;;;;;;;;;;;;;;;;;;344313;28;814;-64
2022/08/19 00:52:04;;;;;;;;;;;;;;;;;;344293;28;897;-63
2022/08/19 00:52:16;;;;;;;;;;;;;;;;;;344280;28;991;-64
2022/08/19 00:52:29;;;;;;;;;;;;;;;;;;344330;28;940;-64
2022/08/19 00:52:45;;;;;;;;;;;;;;;;;;344363;28;971;-64
2022/08/19 00:52:55;;;;;;;;;;;;;;;;;;344166;28;1503;-64
2022/08/19 00:53:06;;;;;;;;;;;;;;;;;;344318;28;925;-64
2022/08/19 00:53:18;;;;;;;;;;;;;;;;;;344322;28;949;-63
2022/08/19 00:53:30;;;;;;;;;;;;;;;;;;344333;28;1007;-63
2022/08/19 00:53:40;;;;;;;;;;;;;;;;;;344252;28;810;-64
2022/08/19 00:53:50;;;;;;;;;;;;;;;;;;344350;28;924;-64
2022/08/19 00:54:01;;;;;;;;;;;;;;;;;;344341;28;779;-64
2022/08/19 00:54:12;;;;;;;;;;;;;;;;;;344290;28;977;-64
2022/08/19 00:54:23;;;;;;;;;;;;;;;;;;344343;28;963;-64
2022/08/19 00:54:33;;;;;;;;;;;;;;;;;;344305;28;948;-64
2022/08/19 00:54:44;;;;;;;;;;;;;;;;;;344294;28;1035;-64
2022/08/19 00:54:54;;;;;;;;;;;;;;;;;;344307;28;924;-64
2022/08/19 00:55:05;;;;;;;;;;;;;;;;;;344238;28;924;-64
2022/08/19 00:55:18;;;;;;;;;;;;;;;;;;344296;28;988;-63
2022/08/19 00:55:28;;;;;;;;;;;;;;;;;;344360;28;880;-64
2022/08/19 00:55:38;;;;;;;;;;;;;;;;;;344288;28;968;-63
2022/08/19 00:55:50;;;;;;;;;;;;;;;;;;344395;28;858;-64
2022/08/19 00:56:02;;;;;;;;;;;;;;;;;;343553;28;1469;-63
2022/08/19 00:56:12;;;;;;;;;;;;;;;;;;344219;28;975;-64
2022/08/19 00:56:23;;;;;;;;;;;;;;;;;;344339;28;972;-64
2022/08/19 00:56:33;;;;;;;;;;;;;;;;;;344298;28;1023;-64
2022/08/19 00:56:44;;;;;;;;;;;;;;;;;;344333;28;870;-63
2022/08/19 00:56:54;;;;;;;;;;;;;;;;;;343828;28;1520;-64
2022/08/19 00:57:06;;;;;;;;;;;;;;;;;;343603;28;1332;-64
2022/08/19 00:57:20;;;;;;;;;;;;;;;;;;344370;28;857;-64
2022/08/19 00:57:36;;;;;;;;;;;;;;;;;;344238;28;1494;-64
2022/08/19 00:57:54;;;;;;;;;;;;;;;;;;344186;28;1008;-64
2022/08/19 00:58:11;;;;;;;;;;;;;;;;;;343709;28;1544;-64
2022/08/19 00:58:24;;;;;;;;;;;;;;;;;;343943;28;1754;-64
2022/08/19 00:58:35;;;;;;;;;;;;;;;;;;342957;28;877;-64
2022/08/19 00:58:45;;;;;;;;;;;;;;;;;;343037;28;790;-64
2022/08/19 00:58:57;;;;;;;;;;;;;;;;;;342937;28;928;-64
2022/08/19 00:59:08;;;;;;;;;;;;;;;;;;342951;28;972;-64
2022/08/19 00:59:19;;;;;;;;;;;;;;;;;;343010;28;778;-64
2022/08/19 00:59:30;;;;;;;;;;;;;;;;;;342949;28;789;-64
2022/08/19 00:59:41;;;;;;;;;;;;;;;;;;342977;28;1007;-64
2022/08/19 00:59:54;;;;;;;;;;;;;;;;;;342932;28;1098;-63
2022/08/19 01:00:07;;;;;;;;;;;;;;;;;;342981;28;873;-64
2022/08/19 01:00:18;;;;;;;;;;;;;;;;;;342848;28;1303;-64
2022/08/19 01:00:30;;;;;;;;;;;;;;;;;;344031;28;1404;-64
2022/08/19 01:00:40;;;;;;;;;;;;;;;;;;344226;28;1569;-64
2022/08/19 01:00:50;;;;;;;;;;;;;;;;;;344310;28;786;-64
2022/08/19 01:01:02;;;;;;;;;;;;;;;;;;344358;28;960;-64
2022/08/19 01:01:13;;;;;;;;;;;;;;;;;;344263;28;952;-64
2022/08/19 01:01:24;;;;;;;;;;;;;;;;;;344350;28;845;-64
2022/08/19 01:01:41;;;;;;;;;;;;;;;;;;344343;28;810;-63
2022/08/19 01:01:52;;;;;;;;;;;;;;;;;;344291;28;936;-63
2022/08/19 01:02:02;;;;;;;;;;;;;;;;;;343753;28;1461;-64
2022/08/19 01:02:13;;;;;;;;;;;;;;;;;;344001;28;1273;-64
2022/08/19 01:02:24;;;;;;;;;;;;;;;;;;344279;28;960;-64
2022/08/19 01:02:34;;;;;;;;;;;;;;;;;;344343;28;889;-64
2022/08/19 01:02:44;;;;;;;;;;;;;;;;;;344350;28;1181;-64
2022/08/19 01:02:55;;;;;;;;;;;;;;;;;;344359;28;907;-64
2022/08/19 01:03:10;;;;;;;;;;;;;;;;;;344147;28;1152;-64
2022/08/19 01:03:21;;;;;;;;;;;;;;;;;;343839;28;1329;-64
2022/08/19 01:03:31;;;;;;;;;;;;;;;;;;344300;28;1035;-64
2022/08/19 01:03:41;;;;;;;;;;;;;;;;;;344364;28;1179;-64
2022/08/19 01:03:52;;;;;;;;;;;;;;;;;;344316;28;971;-64
2022/08/19 01:04:02;;;;;;;;;;;;;;;;;;344253;28;1022;-64
2022/08/19 01:04:12;;;;;;;;;;;;;;;;;;344333;28;1015;-64
2022/08/19 01:04:22;;;;;;;;;;;;;;;;;;344375;28;979;-64
2022/08/19 01:04:32;;;;;;;;;;;;;;;;;;344295;28;1960;-64
2022/08/19 01:04:43;;;;;;;;;;;;;;;;;;344380;28;798;-64
2022/08/19 01:04:53;;;;;;;;;;;;;;;;;;344334;28;944;-64
2022/08/19 01:05:06;;;;;;;;;;;;;;;;;;344321;28;825;-64
2022/08/19 01:05:19;;;;;;;;;;;;;;;;;;344200;28;1782;-63
2022/08/19 01:05:30;;;;;;;;;;;;;;;;;;342986;28;810;-64
2022/08/19 01:05:42;;;;;;;;;;;;;;;;;;342951;28;968;-64
2022/08/19 01:05:53;;;;;;;;;;;;;;;;;;342915;28;980;-64
2022/08/19 01:06:04;;;;;;;;;;;;;;;;;;342935;28;987;-64
2022/08/19 01:06:15;;;;;;;;;;;;;;;;;;343452;28;1282;-63
2022/08/19 01:06:26;;;;;;;;;;;;;;;;;;344281;28;782;-64
2022/08/19 01:06:37;;;;;;;;;;;;;;;;;;344318;28;985;-64
2022/08/19 01:06:47;;;;;;;;;;;;;;;;;;344309;28;901;-64
2022/08/19 01:06:58;;;;;;;;;;;;;;;;;;344268;28;913;-64
2022/08/19 01:07:09;;;;;;;;;;;;;;;;;;344337;28;987;-64
2022/08/19 01:07:19;;;;;;;;;;;;;;;;;;344109;28;1651;-64
2022/08/19 01:07:29;;;;;;;;;;;;;;;;;;344153;28;1435;-64
2022/08/19 01:07:40;;;;;;;;;;;;;;;;;;344337;28;917;-63
2022/08/19 01:07:51;;;;;;;;;;;;;;;;;;344350;28;933;-64
2022/08/19 01:08:03;;;;;;;;;;;;;;;;;;343298;28;1545;-64
2022/08/19 01:08:14;;;;;;;;;;;;;;;;;;344233;28;1220;-64
2022/08/19 01:08:24;;;;;;;;;;;;;;;;;;344289;28;928;-64
2022/08/19 01:08:34;;;;;;;;;;;;;;;;;;344432;28;918;-64
2022/08/19 01:08:45;;;;;;;;;;;;;;;;;;344288;28;889;-64
2022/08/19 01:08:55;;;;;;;;;;;;;;;;;;344303;28;940;-64
2022/08/19 01:09:05;;;;;;;;;;;;;;;;;;344236;28;984;-64
2022/08/19 01:09:15;;;;;;;;;;;;;;;;;;344298;28;983;-64
2022/08/19 01:09:26;;;;;;;;;;;;;;;;;;344411;28;944;-64
2022/08/19 01:09:36;;;;;;;;;;;;;;;;;;344256;28;1002;-63
2022/08/19 01:09:46;;;;;;;;;;;;;;;;;;344315;28;999;-63
2022/08/19 01:09:56;;;;;;;;;;;;;;;;;;343603;28;1662;-64
2022/08/19 01:10:08;;;;;;;;;;;;;;;;;;344233;28;866;-64
2022/08/19 01:10:19;;;;;;;;;;;;;;;;;;344266;28;789;-64
2022/08/19 01:10:32;;;;;;;;;;;;;;;;;;344015;28;1797;-64
2022/08/19 01:10:44;;;;;;;;;;;;;;;;;;344222;28;1471;-64
2022/08/19 01:10:57;;;;;;;;;;;;;;;;;;344346;28;829;-64
2022/08/19 01:11:08;;;;;;;;;;;;;;;;;;343681;28;1782;-64
2022/08/19 01:11:18;;;;;;;;;;;;;;;;;;344218;28;920;-63
2022/08/19 01:11:29;;;;;;;;;;;;;;;;;;344100;28;968;-64
2022/08/19 01:11:42;;;;;;;;;;;;;;;;;;344148;28;956;-64
2022/08/19 01:11:53;;;;;;;;;;;;;;;;;;344360;28;897;-64
2022/08/19 01:12:03;;;;;;;;;;;;;;;;;;344320;28;1034;-64
2022/08/19 01:12:14;;;;;;;;;;;;;;;;;;344233;28;833;-64
2022/08/19 01:12:25;;;;;;;;;;;;;;;;;;344209;28;1047;-63
2022/08/19 01:12:36;;;;;;;;;;;;;;;;;;344356;28;979;-63
2022/08/19 01:12:46;;;;;;;;;;;;;;;;;;344330;28;880;-64
2022/08/19 01:12:58;;;;;;;;;;;;;;;;;;344382;28;908;-64
2022/08/19 01:13:08;;;;;;;;;;;;;;;;;;343610;28;1624;-64
2022/08/19 01:13:20;;;;;;;;;;;;;;;;;;344302;28;912;-64
2022/08/19 01:13:32;;;;;;;;;;;;;;;;;;344316;28;980;-64
2022/08/19 01:13:42;;;;;;;;;;;;;;;;;;344327;28;967;-64
2022/08/19 01:13:53;;;;;;;;;;;;;;;;;;344217;28;1003;-64
2022/08/19 01:14:03;;;;;;;;;;;;;;;;;;344328;28;901;-64
2022/08/19 01:14:15;;;;;;;;;;;;;;;;;;344332;28;937;-64
2022/08/19 01:14:25;;;;;;;;;;;;;;;;;;344261;28;983;-64
2022/08/19 01:14:38;;;;;;;;;;;;;;;;;;344277;28;924;-64
2022/08/19 01:14:49;;;;;;;;;;;;;;;;;;344314;28;813;-64
2022/08/19 01:14:59;;;;;;;;;;;;;;;;;;344308;28;944;-64
2022/08/19 01:15:12;;;;;;;;;;;;;;;;;;344381;28;833;-63
2022/08/19 01:15:38;;;;;;;;;;;;;;;;;;343730;28;1730;-64
2022/08/19 01:15:49;;;;;;;;;;;;;;;;;;342979;28;892;-63
2022/08/19 01:16:04;;;;;;;;;;;;;;;;;;342961;28;941;-64
2022/08/19 01:16:16;;;;;;;;;;;;;;;;;;342969;28;893;-64
2022/08/19 01:16:28;;;;;;;;;;;;;;;;;;342894;28;937;-64
2022/08/19 01:16:39;;;;;;;;;;;;;;;;;;343008;28;924;-64
2022/08/19 01:16:54;;;;;;;;;;;;;;;;;;342942;28;937;-64
2022/08/19 01:17:04;;;;;;;;;;;;;;;;;;342913;28;877;-64
2022/08/19 01:17:15;;;;;;;;;;;;;;;;;;342899;28;1006;-64
2022/08/19 01:17:26;;;;;;;;;;;;;;;;;;343636;28;1785;-64
2022/08/19 01:17:38;;;;;;;;;;;;;;;;;;344208;28;1530;-64
2022/08/19 01:17:49;;;;;;;;;;;;;;;;;;344347;28;933;-64
2022/08/19 01:18:05;;;;;;;;;;;;;;;;;;344296;28;988;-64
2022/08/19 01:18:17;;;;;;;;;;;;;;;;;;344297;28;830;-64
2022/08/19 01:18:28;;;;;;;;;;;;;;;;;;344262;28;917;-63
2022/08/19 01:18:40;;;;;;;;;;;;;;;;;;344230;28;1179;-64
2022/08/19 01:18:50;;;;;;;;;;;;;;;;;;344226;28;1003;-64
2022/08/19 01:19:01;;;;;;;;;;;;;;;;;;344339;28;905;-64
2022/08/19 01:19:23;;;;;;;;;;;;;;;;;;344349;28;897;-63
2022/08/19 01:19:36;;;;;;;;;;;;;;;;;;342913;28;1062;-64